sensor_id;sensor_type;location;lat;lon;timestamp;temperature;humidity
28247;DHT22;34504;53.178;22.058;2022-11-12T00:02:48;10.80;99.90
28247;DHT22;34504;53.178;22.058;2022-11-12T00:05:36;10.80;99.90
28247;DHT22;34504;53.178;22.058;2022-11-12T00:08:22;10.80;99.90
28247;DHT22;34504;53.178;22.058;2022-11-12T00:11:09;10.80;99.90
28247;DHT22;34504;53.178;22.058;2022-11-12T00:13:56;10.80;99.90
28247;DHT22;34504;53.178;22.058;2022-11-12T00:16:42;10.80;99.90
28247;DHT22;34504;53.178;22.058;2022-11-12T00:19:29;10.80;99.90
28247;DHT22;34504;53.178;22.058;2022-11-12T00:22:16;10.90;99.90
28247;DHT22;34504;53.178;22.058;2022-11-12T00:25:03;10.90;99.90
28247;DHT22;34504;53.178;22.058;2022-11-12T00:27:50;10.90;99.90
28247;DHT22;34504;53.178;22.058;2022-11-12T00:30:38;10.80;99.90
28247;DHT22;34504;53.178;22.058;2022-11-12T00:33:25;10.80;99.90
28247;DHT22;34504;53.178;22.058;2022-11-12T00:36:12;10.90;99.90
28247;DHT22;34504;53.178;22.058;2022-11-12T00:38:58;10.90;99.90
28247;DHT22;34504;53.178;22.058;2022-11-12T00:41:45;10.90;99.90
28247;DHT22;34504;53.178;22.058;2022-11-12T00:44:32;10.90;99.90
28247;DHT22;34504;53.178;22.058;2022-11-12T00:47:19;10.80;99.90
28247;DHT22;34504;53.178;22.058;2022-11-12T00:50:06;10.90;99.90
28247;DHT22;34504;53.178;22.058;2022-11-12T00:52:53;10.80;99.90
28247;DHT22;34504;53.178;22.058;2022-11-12T00:55:40;10.90;99.90
28247;DHT22;34504;53.178;22.058;2022-11-12T00:58:28;10.90;99.90
28247;DHT22;34504;53.178;22.058;2022-11-12T01:01:16;10.80;99.90
28247;DHT22;34504;53.178;22.058;2022-11-12T01:04:02;10.90;99.90
28247;DHT22;34504;53.178;22.058;2022-11-12T01:06:49;10.90;99.90
28247;DHT22;34504;53.178;22.058;2022-11-12T01:09:35;10.90;99.90
28247;DHT22;34504;53.178;22.058;2022-11-12T01:12:22;10.90;99.90
28247;DHT22;34504;53.178;22.058;2022-11-12T01:15:09;10.90;99.90
28247;DHT22;34504;53.178;22.058;2022-11-12T01:17:56;10.90;99.90
28247;DHT22;34504;53.178;22.058;2022-11-12T01:20:42;10.90;99.90
28247;DHT22;34504;53.178;22.058;2022-11-12T01:23:32;10.90;99.90
28247;DHT22;34504;53.178;22.058;2022-11-12T01:26:26;10.90;99.90
28247;DHT22;34504;53.178;22.058;2022-11-12T01:29:17;10.90;99.90
28247;DHT22;34504;53.178;22.058;2022-11-12T01:32:06;11.00;99.90
28247;DHT22;34504;53.178;22.058;2022-11-12T01:34:56;10.90;99.90
28247;DHT22;34504;53.178;22.058;2022-11-12T01:37:42;11.00;99.90
28247;DHT22;34504;53.178;22.058;2022-11-12T01:40:31;10.90;99.90
28247;DHT22;34504;53.178;22.058;2022-11-12T01:43:18;11.00;99.90
28247;DHT22;34504;53.178;22.058;2022-11-12T01:46:18;10.90;99.90
28247;DHT22;34504;53.178;22.058;2022-11-12T01:49:10;10.90;99.90
28247;DHT22;34504;53.178;22.058;2022-11-12T01:52:16;10.90;99.90
28247;DHT22;34504;53.178;22.058;2022-11-12T01:55:10;11.00;99.90
28247;DHT22;34504;53.178;22.058;2022-11-12T01:57:59;10.90;99.90
28247;DHT22;34504;53.178;22.058;2022-11-12T02:00:50;10.90;99.90
28247;DHT22;34504;53.178;22.058;2022-11-12T02:03:37;11.00;99.90
28247;DHT22;34504;53.178;22.058;2022-11-12T02:06:24;10.90;99.90
28247;DHT22;34504;53.178;22.058;2022-11-12T02:09:10;11.00;99.90
28247;DHT22;34504;53.178;22.058;2022-11-12T02:11:58;11.00;99.90
28247;DHT22;34504;53.178;22.058;2022-11-12T02:14:46;10.90;99.90
28247;DHT22;34504;53.178;22.058;2022-11-12T02:17:32;11.00;99.90
28247;DHT22;34504;53.178;22.058;2022-11-12T02:20:19;10.90;99.90
28247;DHT22;34504;53.178;22.058;2022-11-12T02:23:07;10.90;99.90
28247;DHT22;34504;53.178;22.058;2022-11-12T02:25:54;10.90;99.90
28247;DHT22;34504;53.178;22.058;2022-11-12T02:28:40;10.90;99.90
28247;DHT22;34504;53.178;22.058;2022-11-12T02:31:27;10.90;99.90
28247;DHT22;34504;53.178;22.058;2022-11-12T02:34:14;10.90;99.90
28247;DHT22;34504;53.178;22.058;2022-11-12T02:37:01;10.90;99.90
28247;DHT22;34504;53.178;22.058;2022-11-12T02:39:47;10.90;99.90
28247;DHT22;34504;53.178;22.058;2022-11-12T02:42:35;10.90;99.90
28247;DHT22;34504;53.178;22.058;2022-11-12T02:45:22;10.90;99.90
28247;DHT22;34504;53.178;22.058;2022-11-12T02:48:09;10.90;99.90
28247;DHT22;34504;53.178;22.058;2022-11-12T02:51:01;10.90;99.90
28247;DHT22;34504;53.178;22.058;2022-11-12T02:53:48;10.90;99.90
28247;DHT22;34504;53.178;22.058;2022-11-12T02:56:34;10.90;99.90
28247;DHT22;34504;53.178;22.058;2022-11-12T02:59:24;10.90;99.90
28247;DHT22;34504;53.178;22.058;2022-11-12T03:02:10;10.90;99.90
28247;DHT22;34504;53.178;22.058;2022-11-12T03:04:57;10.90;99.90
28247;DHT22;34504;53.178;22.058;2022-11-12T03:07:44;10.90;99.90
28247;DHT22;34504;53.178;22.058;2022-11-12T03:10:32;10.90;99.90
28247;DHT22;34504;53.178;22.058;2022-11-12T03:13:19;10.90;99.90
28247;DHT22;34504;53.178;22.058;2022-11-12T03:16:07;10.90;99.90
28247;DHT22;34504;53.178;22.058;2022-11-12T03:18:54;10.90;99.90
28247;DHT22;34504;53.178;22.058;2022-11-12T03:21:42;10.90;99.90
28247;DHT22;34504;53.178;22.058;2022-11-12T03:24:28;10.90;99.90
28247;DHT22;34504;53.178;22.058;2022-11-12T03:27:15;10.90;99.90
28247;DHT22;34504;53.178;22.058;2022-11-12T03:30:02;10.90;99.90
28247;DHT22;34504;53.178;22.058;2022-11-12T03:32:49;10.90;99.90
28247;DHT22;34504;53.178;22.058;2022-11-12T03:35:38;10.90;99.90
28247;DHT22;34504;53.178;22.058;2022-11-12T03:38:26;10.90;99.90
28247;DHT22;34504;53.178;22.058;2022-11-12T03:41:13;10.90;99.90
28247;DHT22;34504;53.178;22.058;2022-11-12T03:44:00;11.00;99.90
28247;DHT22;34504;53.178;22.058;2022-11-12T03:46:46;11.00;99.90
28247;DHT22;34504;53.178;22.058;2022-11-12T03:49:33;10.90;99.90
28247;DHT22;34504;53.178;22.058;2022-11-12T03:52:20;10.90;99.90
28247;DHT22;34504;53.178;22.058;2022-11-12T03:55:09;11.00;99.90
28247;DHT22;34504;53.178;22.058;2022-11-12T03:57:56;10.90;99.90
28247;DHT22;34504;53.178;22.058;2022-11-12T04:00:43;10.90;99.90
28247;DHT22;34504;53.178;22.058;2022-11-12T04:03:34;10.90;99.90
28247;DHT22;34504;53.178;22.058;2022-11-12T04:06:21;11.00;99.90
28247;DHT22;34504;53.178;22.058;2022-11-12T04:09:26;11.00;99.90
28247;DHT22;34504;53.178;22.058;2022-11-12T04:12:12;11.00;99.90
28247;DHT22;34504;53.178;22.058;2022-11-12T04:15:17;11.00;99.90
28247;DHT22;34504;53.178;22.058;2022-11-12T04:18:05;11.00;99.90
28247;DHT22;34504;53.178;22.058;2022-11-12T04:21:13;11.00;99.90
28247;DHT22;34504;53.178;22.058;2022-11-12T04:24:37;10.90;99.90
28247;DHT22;34504;53.178;22.058;2022-11-12T04:27:42;11.00;99.90
28247;DHT22;34504;53.178;22.058;2022-11-12T04:30:29;10.90;99.90
28247;DHT22;34504;53.178;22.058;2022-11-12T04:33:16;10.90;99.90
28247;DHT22;34504;53.178;22.058;2022-11-12T04:36:03;10.90;99.90
28247;DHT22;34504;53.178;22.058;2022-11-12T04:38:50;11.00;99.90
28247;DHT22;34504;53.178;22.058;2022-11-12T04:41:37;10.90;99.90
28247;DHT22;34504;53.178;22.058;2022-11-12T04:44:43;10.90;99.90
28247;DHT22;34504;53.178;22.058;2022-11-12T04:47:48;11.00;99.90
28247;DHT22;34504;53.178;22.058;2022-11-12T04:50:35;10.90;99.90
28247;DHT22;34504;53.178;22.058;2022-11-12T04:53:23;10.90;99.90
28247;DHT22;34504;53.178;22.058;2022-11-12T04:56:11;11.00;99.90
28247;DHT22;34504;53.178;22.058;2022-11-12T04:59:01;10.90;99.90
28247;DHT22;34504;53.178;22.058;2022-11-12T05:01:49;11.00;99.90
28247;DHT22;34504;53.178;22.058;2022-11-12T05:04:36;11.00;99.90
28247;DHT22;34504;53.178;22.058;2022-11-12T05:07:22;10.90;99.90
28247;DHT22;34504;53.178;22.058;2022-11-12T05:10:09;10.90;99.90
28247;DHT22;34504;53.178;22.058;2022-11-12T05:12:56;10.90;99.90
28247;DHT22;34504;53.178;22.058;2022-11-12T05:15:43;10.90;99.90
28247;DHT22;34504;53.178;22.058;2022-11-12T05:18:29;10.90;99.90
28247;DHT22;34504;53.178;22.058;2022-11-12T05:21:16;10.90;99.90
28247;DHT22;34504;53.178;22.058;2022-11-12T05:24:28;10.90;99.90
28247;DHT22;34504;53.178;22.058;2022-11-12T05:27:27;10.90;99.90
28247;DHT22;34504;53.178;22.058;2022-11-12T05:30:13;10.90;99.90
28247;DHT22;34504;53.178;22.058;2022-11-12T05:33:00;10.90;99.90
28247;DHT22;34504;53.178;22.058;2022-11-12T05:35:49;10.90;99.90
28247;DHT22;34504;53.178;22.058;2022-11-12T05:38:37;10.90;99.90
28247;DHT22;34504;53.178;22.058;2022-11-12T05:41:24;10.90;99.90
28247;DHT22;34504;53.178;22.058;2022-11-12T05:44:11;10.90;99.90
28247;DHT22;34504;53.178;22.058;2022-11-12T05:46:58;10.90;99.90
28247;DHT22;34504;53.178;22.058;2022-11-12T05:49:45;10.90;99.90
28247;DHT22;34504;53.178;22.058;2022-11-12T05:52:31;10.90;99.90
28247;DHT22;34504;53.178;22.058;2022-11-12T05:55:18;10.90;99.90
28247;DHT22;34504;53.178;22.058;2022-11-12T05:58:05;10.90;99.90
28247;DHT22;34504;53.178;22.058;2022-11-12T06:00:52;10.90;99.90
28247;DHT22;34504;53.178;22.058;2022-11-12T06:03:41;10.90;99.90
28247;DHT22;34504;53.178;22.058;2022-11-12T06:06:27;10.90;99.90
28247;DHT22;34504;53.178;22.058;2022-11-12T06:09:14;10.80;99.90
28247;DHT22;34504;53.178;22.058;2022-11-12T06:12:01;10.90;99.90
28247;DHT22;34504;53.178;22.058;2022-11-12T06:14:53;10.80;99.90
28247;DHT22;34504;53.178;22.058;2022-11-12T06:17:41;10.80;99.90
28247;DHT22;34504;53.178;22.058;2022-11-12T06:20:28;10.80;99.90
28247;DHT22;34504;53.178;22.058;2022-11-12T06:23:14;10.80;99.90
28247;DHT22;34504;53.178;22.058;2022-11-12T06:26:01;10.80;99.90
28247;DHT22;34504;53.178;22.058;2022-11-12T06:28:48;10.80;99.90
28247;DHT22;34504;53.178;22.058;2022-11-12T06:31:40;10.80;99.90
28247;DHT22;34504;53.178;22.058;2022-11-12T06:34:27;10.80;99.90
28247;DHT22;34504;53.178;22.058;2022-11-12T06:37:14;10.80;99.90
28247;DHT22;34504;53.178;22.058;2022-11-12T06:40:01;10.80;99.90
28247;DHT22;34504;53.178;22.058;2022-11-12T06:42:55;10.80;99.90
28247;DHT22;34504;53.178;22.058;2022-11-12T06:45:42;10.80;99.90
28247;DHT22;34504;53.178;22.058;2022-11-12T06:48:29;10.80;99.90
28247;DHT22;34504;53.178;22.058;2022-11-12T06:51:20;10.80;99.90
28247;DHT22;34504;53.178;22.058;2022-11-12T06:54:06;10.80;99.90
28247;DHT22;34504;53.178;22.058;2022-11-12T06:56:55;10.80;99.90
28247;DHT22;34504;53.178;22.058;2022-11-12T06:59:41;10.80;99.90
28247;DHT22;34504;53.178;22.058;2022-11-12T07:02:28;10.70;99.90
28247;DHT22;34504;53.178;22.058;2022-11-12T07:05:17;10.70;99.90
28247;DHT22;34504;53.178;22.058;2022-11-12T07:08:05;10.70;99.90
28247;DHT22;34504;53.178;22.058;2022-11-12T07:10:57;10.80;99.90
28247;DHT22;34504;53.178;22.058;2022-11-12T07:13:45;10.80;99.90
28247;DHT22;34504;53.178;22.058;2022-11-12T07:16:32;10.80;99.90
28247;DHT22;34504;53.178;22.058;2022-11-12T07:19:19;10.80;99.90
28247;DHT22;34504;53.178;22.058;2022-11-12T07:22:06;10.80;99.90
28247;DHT22;34504;53.178;22.058;2022-11-12T07:24:58;10.80;99.90
28247;DHT22;34504;53.178;22.058;2022-11-12T07:27:45;10.80;99.90
28247;DHT22;34504;53.178;22.058;2022-11-12T07:30:31;10.80;99.90
28247;DHT22;34504;53.178;22.058;2022-11-12T07:33:18;10.80;99.90
28247;DHT22;34504;53.178;22.058;2022-11-12T07:36:11;10.80;99.90
28247;DHT22;34504;53.178;22.058;2022-11-12T07:38:57;10.80;99.90
28247;DHT22;34504;53.178;22.058;2022-11-12T07:41:44;10.80;99.90
28247;DHT22;34504;53.178;22.058;2022-11-12T07:44:31;10.80;99.90
28247;DHT22;34504;53.178;22.058;2022-11-12T07:47:18;10.80;99.90
28247;DHT22;34504;53.178;22.058;2022-11-12T07:50:04;10.80;99.90
28247;DHT22;34504;53.178;22.058;2022-11-12T07:52:51;10.80;99.90
28247;DHT22;34504;53.178;22.058;2022-11-12T07:55:37;10.70;99.90
28247;DHT22;34504;53.178;22.058;2022-11-12T07:58:26;10.70;99.90
28247;DHT22;34504;53.178;22.058;2022-11-12T08:01:36;10.70;99.90
28247;DHT22;34504;53.178;22.058;2022-11-12T08:04:23;10.60;99.90
28247;DHT22;34504;53.178;22.058;2022-11-12T08:07:09;10.60;99.90
28247;DHT22;34504;53.178;22.058;2022-11-12T08:09:56;10.60;99.90
28247;DHT22;34504;53.178;22.058;2022-11-12T08:12:44;10.60;99.90
28247;DHT22;34504;53.178;22.058;2022-11-12T08:15:31;10.60;99.90
28247;DHT22;34504;53.178;22.058;2022-11-12T08:18:18;10.60;99.90
28247;DHT22;34504;53.178;22.058;2022-11-12T08:21:06;10.70;99.90
28247;DHT22;34504;53.178;22.058;2022-11-12T08:23:55;10.70;99.90
28247;DHT22;34504;53.178;22.058;2022-11-12T08:26:42;10.60;99.90
28247;DHT22;34504;53.178;22.058;2022-11-12T08:29:29;10.60;99.90
28247;DHT22;34504;53.178;22.058;2022-11-12T08:32:16;10.60;99.90
28247;DHT22;34504;53.178;22.058;2022-11-12T08:35:02;10.60;99.90
28247;DHT22;34504;53.178;22.058;2022-11-12T08:37:49;10.60;99.90
28247;DHT22;34504;53.178;22.058;2022-11-12T08:40:36;10.60;99.90
28247;DHT22;34504;53.178;22.058;2022-11-12T08:43:22;10.60;99.90
28247;DHT22;34504;53.178;22.058;2022-11-12T08:46:09;10.70;99.90
28247;DHT22;34504;53.178;22.058;2022-11-12T08:48:58;10.60;99.90
28247;DHT22;34504;53.178;22.058;2022-11-12T08:51:45;10.70;99.90
28247;DHT22;34504;53.178;22.058;2022-11-12T08:54:32;10.70;99.90
28247;DHT22;34504;53.178;22.058;2022-11-12T08:57:18;10.60;99.90
28247;DHT22;34504;53.178;22.058;2022-11-12T09:00:05;10.60;99.90
28247;DHT22;34504;53.178;22.058;2022-11-12T09:02:52;10.70;99.90
28247;DHT22;34504;53.178;22.058;2022-11-12T09:05:39;10.70;99.90
28247;DHT22;34504;53.178;22.058;2022-11-12T09:08:25;10.70;99.90
28247;DHT22;34504;53.178;22.058;2022-11-12T09:11:13;10.70;99.90
28247;DHT22;34504;53.178;22.058;2022-11-12T09:14:03;10.70;99.90
28247;DHT22;34504;53.178;22.058;2022-11-12T09:17:06;10.70;99.90
28247;DHT22;34504;53.178;22.058;2022-11-12T09:19:52;10.60;99.90
28247;DHT22;34504;53.178;22.058;2022-11-12T09:22:48;10.70;99.90
28247;DHT22;34504;53.178;22.058;2022-11-12T09:25:35;10.70;99.90
28247;DHT22;34504;53.178;22.058;2022-11-12T09:28:23;10.70;99.90
28247;DHT22;34504;53.178;22.058;2022-11-12T09:31:10;10.60;99.90
28247;DHT22;34504;53.178;22.058;2022-11-12T09:33:57;10.70;99.90
28247;DHT22;34504;53.178;22.058;2022-11-12T09:36:43;10.70;99.90
28247;DHT22;34504;53.178;22.058;2022-11-12T09:39:30;10.70;99.90
28247;DHT22;34504;53.178;22.058;2022-11-12T09:42:19;10.70;99.90
28247;DHT22;34504;53.178;22.058;2022-11-12T09:45:23;10.60;99.90
28247;DHT22;34504;53.178;22.058;2022-11-12T09:48:20;10.60;99.90
28247;DHT22;34504;53.178;22.058;2022-11-12T09:51:12;10.70;99.90
28247;DHT22;34504;53.178;22.058;2022-11-12T09:54:27;10.70;99.90
28247;DHT22;34504;53.178;22.058;2022-11-12T09:57:12;10.70;99.90
28247;DHT22;34504;53.178;22.058;2022-11-12T09:59:58;10.80;99.90
28247;DHT22;34504;53.178;22.058;2022-11-12T10:02:58;10.80;99.90
28247;DHT22;34504;53.178;22.058;2022-11-12T10:05:51;10.80;99.90
28247;DHT22;34504;53.178;22.058;2022-11-12T10:09:11;10.70;99.90
28247;DHT22;34504;53.178;22.058;2022-11-12T10:15:56;10.70;99.90
28247;DHT22;34504;53.178;22.058;2022-11-12T10:25:18;10.70;99.90
28247;DHT22;34504;53.178;22.058;2022-11-12T10:31:20;10.70;99.90
28247;DHT22;34504;53.178;22.058;2022-11-12T10:37:06;10.80;99.90
28247;DHT22;34504;53.178;22.058;2022-11-12T10:39:58;10.90;99.90
28247;DHT22;34504;53.178;22.058;2022-11-12T10:43:04;10.90;99.90
28247;DHT22;34504;53.178;22.058;2022-11-12T10:45:51;11.00;99.90
28247;DHT22;34504;53.178;22.058;2022-11-12T10:48:37;11.00;99.90
28247;DHT22;34504;53.178;22.058;2022-11-12T10:51:30;11.00;99.90
28247;DHT22;34504;53.178;22.058;2022-11-12T10:57:26;11.10;99.90
28247;DHT22;34504;53.178;22.058;2022-11-12T11:03:01;11.20;99.90
28247;DHT22;34504;53.178;22.058;2022-11-12T11:06:00;11.20;99.90
28247;DHT22;34504;53.178;22.058;2022-11-12T11:08:52;11.30;99.90
28247;DHT22;34504;53.178;22.058;2022-11-12T11:11:50;11.30;99.90
28247;DHT22;34504;53.178;22.058;2022-11-12T11:14:37;11.40;99.90
28247;DHT22;34504;53.178;22.058;2022-11-12T11:17:24;11.40;99.90
28247;DHT22;34504;53.178;22.058;2022-11-12T11:20:23;11.40;99.90
28247;DHT22;34504;53.178;22.058;2022-11-12T11:23:16;11.40;99.90
28247;DHT22;34504;53.178;22.058;2022-11-12T11:39:03;11.50;99.90
28247;DHT22;34504;53.178;22.058;2022-11-12T11:47:52;11.50;99.90
28247;DHT22;34504;53.178;22.058;2022-11-12T11:57:18;11.50;99.90
28247;DHT22;34504;53.178;22.058;2022-11-12T12:00:18;11.50;99.90
28247;DHT22;34504;53.178;22.058;2022-11-12T12:03:23;11.50;99.90
28247;DHT22;34504;53.178;22.058;2022-11-12T12:06:25;11.50;99.90
28247;DHT22;34504;53.178;22.058;2022-11-12T12:09:30;11.50;99.90
28247;DHT22;34504;53.178;22.058;2022-11-12T12:21:50;11.60;99.90
28247;DHT22;34504;53.178;22.058;2022-11-12T12:27:33;11.60;99.90
28247;DHT22;34504;53.178;22.058;2022-11-12T12:30:23;11.50;99.90
28247;DHT22;34504;53.178;22.058;2022-11-12T12:33:28;11.50;99.90
28247;DHT22;34504;53.178;22.058;2022-11-12T12:36:19;11.60;99.90
28247;DHT22;34504;53.178;22.058;2022-11-12T12:39:25;11.60;99.90
28247;DHT22;34504;53.178;22.058;2022-11-12T12:42:27;11.60;99.90
28247;DHT22;34504;53.178;22.058;2022-11-12T12:45:43;11.60;99.90
28247;DHT22;34504;53.178;22.058;2022-11-12T12:48:40;11.60;99.90
28247;DHT22;34504;53.178;22.058;2022-11-12T12:51:30;11.60;99.90
28247;DHT22;34504;53.178;22.058;2022-11-12T12:57:35;11.60;99.90
28247;DHT22;34504;53.178;22.058;2022-11-12T13:00:40;11.60;99.90
28247;DHT22;34504;53.178;22.058;2022-11-12T13:07:01;11.60;99.90
28247;DHT22;34504;53.178;22.058;2022-11-12T13:13:32;11.60;99.90
28247;DHT22;34504;53.178;22.058;2022-11-12T13:16:57;11.60;99.90
28247;DHT22;34504;53.178;22.058;2022-11-12T13:22:53;11.60;99.90
28247;DHT22;34504;53.178;22.058;2022-11-12T13:25:40;11.60;99.90
28247;DHT22;34504;53.178;22.058;2022-11-12T13:28:27;11.60;99.90
28247;DHT22;34504;53.178;22.058;2022-11-12T13:31:26;11.60;99.90
28247;DHT22;34504;53.178;22.058;2022-11-12T13:34:32;11.60;99.90
28247;DHT22;34504;53.178;22.058;2022-11-12T13:37:20;11.60;99.90
28247;DHT22;34504;53.178;22.058;2022-11-12T13:40:15;11.50;99.90
28247;DHT22;34504;53.178;22.058;2022-11-12T13:43:17;11.50;99.90
28247;DHT22;34504;53.178;22.058;2022-11-12T13:48:59;11.50;99.90
28247;DHT22;34504;53.178;22.058;2022-11-12T13:51:48;11.50;99.90
28247;DHT22;34504;53.178;22.058;2022-11-12T13:54:38;11.50;99.90
28247;DHT22;34504;53.178;22.058;2022-11-12T13:57:28;11.50;99.90
28247;DHT22;34504;53.178;22.058;2022-11-12T14:00:26;11.50;99.90
28247;DHT22;34504;53.178;22.058;2022-11-12T14:03:17;11.50;99.90
28247;DHT22;34504;53.178;22.058;2022-11-12T14:06:07;11.40;99.90
28247;DHT22;34504;53.178;22.058;2022-11-12T14:15:12;11.40;99.90
28247;DHT22;34504;53.178;22.058;2022-11-12T14:18:16;11.40;99.90
28247;DHT22;34504;53.178;22.058;2022-11-12T14:21:16;11.40;99.90
28247;DHT22;34504;53.178;22.058;2022-11-12T14:24:08;11.40;99.90
28247;DHT22;34504;53.178;22.058;2022-11-12T14:26:56;11.40;99.90
28247;DHT22;34504;53.178;22.058;2022-11-12T14:29:42;11.30;99.90
28247;DHT22;34504;53.178;22.058;2022-11-12T14:32:35;11.30;99.90
28247;DHT22;34504;53.178;22.058;2022-11-12T14:35:35;11.30;99.90
28247;DHT22;34504;53.178;22.058;2022-11-12T14:38:47;11.30;99.90
28247;DHT22;34504;53.178;22.058;2022-11-12T14:41:34;11.30;99.90
28247;DHT22;34504;53.178;22.058;2022-11-12T14:44:31;11.30;99.90
28247;DHT22;34504;53.178;22.058;2022-11-12T14:47:18;11.30;99.90
28247;DHT22;34504;53.178;22.058;2022-11-12T14:50:21;11.20;99.90
28247;DHT22;34504;53.178;22.058;2022-11-12T14:53:20;11.20;99.90
28247;DHT22;34504;53.178;22.058;2022-11-12T14:59:20;11.20;99.90
28247;DHT22;34504;53.178;22.058;2022-11-12T15:02:13;11.20;99.90
28247;DHT22;34504;53.178;22.058;2022-11-12T15:05:21;11.20;99.90
28247;DHT22;34504;53.178;22.058;2022-11-12T15:08:10;11.20;99.90
28247;DHT22;34504;53.178;22.058;2022-11-12T15:11:20;11.20;99.90
28247;DHT22;34504;53.178;22.058;2022-11-12T15:14:12;11.10;99.90
28247;DHT22;34504;53.178;22.058;2022-11-12T15:17:28;11.10;99.90
28247;DHT22;34504;53.178;22.058;2022-11-12T15:20:17;11.10;99.90
28247;DHT22;34504;53.178;22.058;2022-11-12T15:23:16;11.10;99.90
28247;DHT22;34504;53.178;22.058;2022-11-12T15:26:10;11.10;99.90
28247;DHT22;34504;53.178;22.058;2022-11-12T15:29:12;11.10;99.90
28247;DHT22;34504;53.178;22.058;2022-11-12T15:32:25;11.10;99.90
28247;DHT22;34504;53.178;22.058;2022-11-12T15:38:34;11.00;99.90
28247;DHT22;34504;53.178;22.058;2022-11-12T15:41:28;11.10;99.90
28247;DHT22;34504;53.178;22.058;2022-11-12T15:44:15;11.00;99.90
28247;DHT22;34504;53.178;22.058;2022-11-12T15:47:02;11.00;99.90
28247;DHT22;34504;53.178;22.058;2022-11-12T15:49:58;11.00;99.90
28247;DHT22;34504;53.178;22.058;2022-11-12T15:52:49;11.00;99.90
28247;DHT22;34504;53.178;22.058;2022-11-12T15:55:37;11.00;99.90
28247;DHT22;34504;53.178;22.058;2022-11-12T15:58:30;11.00;99.90
28247;DHT22;34504;53.178;22.058;2022-11-12T16:01:18;11.00;99.90
28247;DHT22;34504;53.178;22.058;2022-11-12T16:04:05;11.00;99.90
28247;DHT22;34504;53.178;22.058;2022-11-12T16:06:54;11.00;99.90
28247;DHT22;34504;53.178;22.058;2022-11-12T16:09:41;11.00;99.90
28247;DHT22;34504;53.178;22.058;2022-11-12T16:12:28;11.00;99.90
28247;DHT22;34504;53.178;22.058;2022-11-12T16:15:20;11.00;99.90
28247;DHT22;34504;53.178;22.058;2022-11-12T16:18:12;11.00;99.90
28247;DHT22;34504;53.178;22.058;2022-11-12T16:21:00;11.00;99.90
28247;DHT22;34504;53.178;22.058;2022-11-12T16:23:48;11.00;99.90
28247;DHT22;34504;53.178;22.058;2022-11-12T16:26:34;11.00;99.90
28247;DHT22;34504;53.178;22.058;2022-11-12T16:29:21;11.00;99.90
28247;DHT22;34504;53.178;22.058;2022-11-12T16:32:12;11.00;99.90
28247;DHT22;34504;53.178;22.058;2022-11-12T16:34:59;11.00;99.90
28247;DHT22;34504;53.178;22.058;2022-11-12T16:37:46;11.00;99.90
28247;DHT22;34504;53.178;22.058;2022-11-12T16:40:33;11.00;99.90
28247;DHT22;34504;53.178;22.058;2022-11-12T16:43:20;11.00;99.90
28247;DHT22;34504;53.178;22.058;2022-11-12T16:46:34;11.00;99.90
28247;DHT22;34504;53.178;22.058;2022-11-12T16:49:20;11.00;99.90
28247;DHT22;34504;53.178;22.058;2022-11-12T16:52:10;11.00;99.90
28247;DHT22;34504;53.178;22.058;2022-11-12T16:54:57;11.00;99.90
28247;DHT22;34504;53.178;22.058;2022-11-12T16:57:52;11.00;99.90
28247;DHT22;34504;53.178;22.058;2022-11-12T17:00:41;11.00;99.90
28247;DHT22;34504;53.178;22.058;2022-11-12T17:03:29;11.00;99.90
28247;DHT22;34504;53.178;22.058;2022-11-12T17:06:16;11.00;99.90
28247;DHT22;34504;53.178;22.058;2022-11-12T17:09:04;11.00;99.90
28247;DHT22;34504;53.178;22.058;2022-11-12T17:11:52;11.00;99.90
28247;DHT22;34504;53.178;22.058;2022-11-12T17:14:39;11.00;99.90
28247;DHT22;34504;53.178;22.058;2022-11-12T17:17:25;11.00;99.90
28247;DHT22;34504;53.178;22.058;2022-11-12T17:20:15;11.00;99.90
28247;DHT22;34504;53.178;22.058;2022-11-12T17:23:01;11.00;99.90
28247;DHT22;34504;53.178;22.058;2022-11-12T17:25:48;11.10;99.90
28247;DHT22;34504;53.178;22.058;2022-11-12T17:28:45;11.10;99.90
28247;DHT22;34504;53.178;22.058;2022-11-12T17:31:31;11.00;99.90
28247;DHT22;34504;53.178;22.058;2022-11-12T17:34:17;11.10;99.90
28247;DHT22;34504;53.178;22.058;2022-11-12T17:37:04;11.10;99.90
28247;DHT22;34504;53.178;22.058;2022-11-12T17:39:51;11.10;99.90
28247;DHT22;34504;53.178;22.058;2022-11-12T17:42:38;11.10;99.90
28247;DHT22;34504;53.178;22.058;2022-11-12T17:45:24;11.10;99.90
28247;DHT22;34504;53.178;22.058;2022-11-12T17:48:10;11.10;99.90
28247;DHT22;34504;53.178;22.058;2022-11-12T17:53:57;11.10;99.90
28247;DHT22;34504;53.178;22.058;2022-11-12T17:56:47;11.10;99.90
28247;DHT22;34504;53.178;22.058;2022-11-12T17:59:34;11.10;99.90
28247;DHT22;34504;53.178;22.058;2022-11-12T18:02:20;11.10;99.90
28247;DHT22;34504;53.178;22.058;2022-11-12T18:05:07;11.10;99.90
28247;DHT22;34504;53.178;22.058;2022-11-12T18:07:54;11.10;99.90
28247;DHT22;34504;53.178;22.058;2022-11-12T18:10:41;11.10;99.90
28247;DHT22;34504;53.178;22.058;2022-11-12T18:13:30;11.10;99.90
28247;DHT22;34504;53.178;22.058;2022-11-12T18:16:25;11.10;99.90
28247;DHT22;34504;53.178;22.058;2022-11-12T18:19:12;11.10;99.90
28247;DHT22;34504;53.178;22.058;2022-11-12T18:21:59;11.10;99.90
28247;DHT22;34504;53.178;22.058;2022-11-12T18:24:47;11.10;99.90
28247;DHT22;34504;53.178;22.058;2022-11-12T18:27:34;11.10;99.90
28247;DHT22;34504;53.178;22.058;2022-11-12T18:30:21;11.10;99.90
28247;DHT22;34504;53.178;22.058;2022-11-12T18:33:08;11.20;99.90
28247;DHT22;34504;53.178;22.058;2022-11-12T18:36:01;11.20;99.90
28247;DHT22;34504;53.178;22.058;2022-11-12T18:38:48;11.10;99.90
28247;DHT22;34504;53.178;22.058;2022-11-12T18:41:37;11.20;99.90
28247;DHT22;34504;53.178;22.058;2022-11-12T18:44:24;11.10;99.90
28247;DHT22;34504;53.178;22.058;2022-11-12T18:47:11;11.20;99.90
28247;DHT22;34504;53.178;22.058;2022-11-12T18:50:00;11.10;99.90
28247;DHT22;34504;53.178;22.058;2022-11-12T18:52:53;11.10;99.90
28247;DHT22;34504;53.178;22.058;2022-11-12T18:55:40;11.10;99.90
28247;DHT22;34504;53.178;22.058;2022-11-12T18:58:27;11.10;99.90
28247;DHT22;34504;53.178;22.058;2022-11-12T19:01:22;11.10;99.90
28247;DHT22;34504;53.178;22.058;2022-11-12T19:04:09;11.10;99.90
28247;DHT22;34504;53.178;22.058;2022-11-12T19:06:56;11.10;99.90
28247;DHT22;34504;53.178;22.058;2022-11-12T19:09:42;11.20;99.90
28247;DHT22;34504;53.178;22.058;2022-11-12T19:12:29;11.20;99.90